createdAt,value
2018-11-13T00:01:30.929Z,26.77
2018-11-13T00:04:01.290Z,29.83
2018-11-13T00:06:33.069Z,31.70
2018-11-13T00:09:03.614Z,28.65
2018-11-13T00:11:33.943Z,29.33
2018-11-13T00:14:04.449Z,36.17
2018-11-13T00:16:34.789Z,30.60
2018-11-13T00:19:05.034Z,32.63
2018-11-13T00:21:35.379Z,33.03
2018-11-13T00:24:05.780Z,33.87
2018-11-13T00:26:37.844Z,31.53
2018-11-13T00:29:08.004Z,35.10
2018-11-13T00:31:38.251Z,37.47
2018-11-13T00:34:08.479Z,38.30
2018-11-13T00:36:38.749Z,33.63
2018-11-13T00:39:13.329Z,34.33
2018-11-13T00:41:43.619Z,36.63
2018-11-13T00:44:13.889Z,38.23
2018-11-13T00:46:44.258Z,30.27
2018-11-13T00:49:14.974Z,30.57
2018-11-13T00:51:45.286Z,32.27
2018-11-13T00:54:15.553Z,28.17
2018-11-13T00:56:46.009Z,30.03
2018-11-13T00:59:16.232Z,33.90
2018-11-13T01:01:46.584Z,26.93
2018-11-13T01:04:16.783Z,33.20
2018-11-13T01:06:47.153Z,31.53
2018-11-13T01:09:17.429Z,30.07
2018-11-13T01:11:47.787Z,31.83
2018-11-13T01:14:18.091Z,29.13
2018-11-13T01:16:48.423Z,30.07
2018-11-13T01:19:18.718Z,31.33
2018-11-13T01:21:49.119Z,28.10
2018-11-13T01:24:19.480Z,26.57
2018-11-13T01:26:49.633Z,28.80
2018-11-13T01:29:19.979Z,35.03
2018-11-13T01:31:50.243Z,34.23
2018-11-13T01:34:20.433Z,32.80
2018-11-13T01:36:50.744Z,26.37
2018-11-13T01:39:21.068Z,31.00
2018-11-13T01:41:51.383Z,35.73
2018-11-13T01:44:21.538Z,33.87
2018-11-13T01:46:51.793Z,38.33
2018-11-13T01:49:22.142Z,34.73
2018-11-13T01:51:52.574Z,30.47
2018-11-13T01:54:22.765Z,39.70
2018-11-13T01:56:53.133Z,28.97
2018-11-13T01:59:23.481Z,33.40
2018-11-13T02:01:53.793Z,28.93
2018-11-13T02:04:24.033Z,29.23
2018-11-13T02:06:54.392Z,28.60
2018-11-13T02:09:24.748Z,29.17
2018-11-13T02:11:55.028Z,26.00
2018-11-13T02:14:25.293Z,27.43
2018-11-13T02:16:55.538Z,29.60
2018-11-13T02:19:25.864Z,25.20
2018-11-13T02:21:56.324Z,26.77
2018-11-13T02:24:26.689Z,27.17
2018-11-13T02:26:58.334Z,25.13
2018-11-13T02:29:28.719Z,23.83
2018-11-13T02:31:59.125Z,24.60
2018-11-13T02:34:29.484Z,23.73
2018-11-13T02:36:59.895Z,28.70
2018-11-13T02:39:30.410Z,22.20
2018-11-13T02:42:00.804Z,27.63
2018-11-13T02:44:31.304Z,22.60
2018-11-13T02:47:01.679Z,25.57
2018-11-13T02:49:32.004Z,23.13
2018-11-13T02:52:02.393Z,26.77
2018-11-13T02:54:32.749Z,23.37
2018-11-13T02:57:03.144Z,22.60
2018-11-13T02:59:33.514Z,25.20
2018-11-13T03:02:03.954Z,25.93
2018-11-13T03:04:34.329Z,27.53
2018-11-13T03:07:04.735Z,32.53
2018-11-13T03:09:35.186Z,23.47
2018-11-13T03:12:05.534Z,24.63
2018-11-13T03:14:35.914Z,23.00
2018-11-13T03:17:06.639Z,29.35
2018-11-13T03:19:37.010Z,27.87
2018-11-13T03:22:07.534Z,27.03
2018-11-13T03:24:37.965Z,29.80
2018-11-13T03:27:08.424Z,28.43
2018-11-13T03:29:38.845Z,26.67
2018-11-13T03:32:09.355Z,22.93
2018-11-13T03:34:39.800Z,25.40
2018-11-13T03:37:10.318Z,25.90
2018-11-13T03:39:40.788Z,23.13
2018-11-13T03:42:11.339Z,20.32
2018-11-13T03:44:42.055Z,31.83
2018-11-13T03:47:12.770Z,24.63
2018-11-13T03:49:43.095Z,25.33
2018-11-13T03:52:13.558Z,27.50
2018-11-13T03:54:43.970Z,26.17
2018-11-13T03:57:14.414Z,29.50
2018-11-13T03:59:44.787Z,31.33
2018-11-13T04:02:15.250Z,25.80
2018-11-13T04:04:45.675Z,33.37
2018-11-13T04:07:16.137Z,27.57
2018-11-13T04:09:46.560Z,30.60
2018-11-13T04:12:17.055Z,33.30
2018-11-13T04:14:47.569Z,31.17
2018-11-13T04:17:18.099Z,29.27
2018-11-13T04:19:48.735Z,31.90
2018-11-13T04:22:19.265Z,31.27
2018-11-13T04:24:49.779Z,34.50
2018-11-13T04:27:20.434Z,38.83
2018-11-13T04:29:50.874Z,33.07
2018-11-13T04:32:21.665Z,37.37
2018-11-13T04:34:52.115Z,40.93
2018-11-13T04:37:22.589Z,37.70
2018-11-13T04:39:53.515Z,45.43
2018-11-13T04:42:24.035Z,43.87
2018-11-13T04:44:54.518Z,47.23
2018-11-13T04:47:24.984Z,51.17
2018-11-13T04:49:55.430Z,50.53
2018-11-13T04:52:25.883Z,49.23
2018-11-13T04:54:56.239Z,43.40
2018-11-13T04:57:27.490Z,47.13
2018-11-13T04:59:58.380Z,47.67
2018-11-13T05:02:28.885Z,45.37
2018-11-13T05:04:59.281Z,44.13
2018-11-13T05:07:29.720Z,49.47
2018-11-13T05:10:00.207Z,41.97
2018-11-13T05:12:30.685Z,50.13
2018-11-13T05:15:01.080Z,43.37
2018-11-13T05:17:32.041Z,51.90
2018-11-13T05:20:02.522Z,41.20
2018-11-13T05:22:32.975Z,51.00
2018-11-13T05:25:03.480Z,50.30
2018-11-13T05:27:33.935Z,50.00
2018-11-13T05:30:04.381Z,47.83
2018-11-13T05:32:34.954Z,43.17
2018-11-13T05:35:05.344Z,54.80
2018-11-13T05:37:35.810Z,49.63
2018-11-13T05:40:08.450Z,49.73
2018-11-13T05:42:39.280Z,44.00
2018-11-13T05:45:11.625Z,43.07
2018-11-13T05:47:42.160Z,52.80
2018-11-13T05:50:14.279Z,52.90
2018-11-13T05:52:45.690Z,44.60
2018-11-13T05:55:17.020Z,62.50
2018-11-13T05:57:47.725Z,48.53
2018-11-13T06:00:23.455Z,40.93
2018-11-13T06:02:54.025Z,57.47
2018-11-13T06:05:24.894Z,52.50
2018-11-13T06:07:55.541Z,47.57
2018-11-13T06:10:26.135Z,53.47
2018-11-13T06:12:56.642Z,52.63
2018-11-13T06:15:27.186Z,60.13
2018-11-13T06:17:58.674Z,59.23
2018-11-13T06:20:29.142Z,54.30
2018-11-13T06:22:59.693Z,57.07
2018-11-13T06:25:30.125Z,58.57
2018-11-13T06:28:00.900Z,46.97
2018-11-13T06:30:31.386Z,47.03
2018-11-13T06:33:01.870Z,54.50
2018-11-13T06:35:32.349Z,64.57
2018-11-13T06:38:02.934Z,52.57
2018-11-13T06:40:33.395Z,51.03
2018-11-13T06:43:03.815Z,46.17
2018-11-13T06:45:34.172Z,60.30
2018-11-13T06:48:04.590Z,49.70
2018-11-13T06:50:34.944Z,49.33
2018-11-13T06:53:05.399Z,49.63
2018-11-13T06:55:37.014Z,50.83
2018-11-13T06:58:07.914Z,57.80
2018-11-13T07:00:38.280Z,52.57
2018-11-13T07:03:08.730Z,50.78
2018-11-13T07:05:39.094Z,51.87
2018-11-13T07:08:09.734Z,53.43
2018-11-13T07:10:40.386Z,54.27
2018-11-13T07:13:11.065Z,51.00
2018-11-13T07:15:41.819Z,50.27
2018-11-13T07:18:12.446Z,51.50
2018-11-13T07:20:42.800Z,48.63
2018-11-13T07:23:13.299Z,48.20
2018-11-13T07:25:43.653Z,47.63
2018-11-13T07:28:14.229Z,60.93
2018-11-13T07:30:44.614Z,43.23
2018-11-13T07:33:14.987Z,46.03
2018-11-13T07:35:45.344Z,46.63
2018-11-13T07:38:15.894Z,50.63
2018-11-13T07:40:46.551Z,47.07
2018-11-13T07:43:17.063Z,46.75
2018-11-13T07:45:47.458Z,34.53
2018-11-13T07:48:17.995Z,44.13
2018-11-13T07:50:48.334Z,44.83
2018-11-13T07:53:18.811Z,37.20
2018-11-13T07:55:49.548Z,41.47
2018-11-13T07:58:20.314Z,37.50
2018-11-13T08:00:50.804Z,41.90
2018-11-13T08:03:30.736Z,51.70
2018-11-13T08:06:02.024Z,40.73
2018-11-13T08:08:32.587Z,40.43
2018-11-13T08:11:04.304Z,35.50
2018-11-13T08:13:35.584Z,40.40
2018-11-13T08:16:06.994Z,37.63
2018-11-13T08:18:37.566Z,33.47
2018-11-13T08:21:08.027Z,35.58
2018-11-13T08:23:39.719Z,37.13
2018-11-13T08:26:10.268Z,36.07
2018-11-13T08:28:40.962Z,52.53
2018-11-13T08:31:11.478Z,38.97
2018-11-13T08:33:41.990Z,53.77
2018-11-13T08:36:12.448Z,39.27
2018-11-13T08:38:43.224Z,59.00
2018-11-13T08:41:14.014Z,42.93
2018-11-13T08:43:44.522Z,39.93
2018-11-13T08:46:15.089Z,34.63
2018-11-13T08:48:45.835Z,32.37
2018-11-13T08:51:16.409Z,39.57
2018-11-13T08:53:47.045Z,50.13
2018-11-13T08:56:17.524Z,46.40
2018-11-13T08:58:48.211Z,37.67
2018-11-13T09:01:18.734Z,32.40
2018-11-13T09:03:49.164Z,26.23
2018-11-13T09:06:19.647Z,35.17
2018-11-13T09:08:50.228Z,28.23
2018-11-13T09:11:20.739Z,30.87
2018-11-13T09:13:51.414Z,37.57
2018-11-13T09:16:21.890Z,35.43
2018-11-13T09:18:52.480Z,26.12
2018-11-13T09:21:23.027Z,25.83
2018-11-13T09:23:53.689Z,32.80
2018-11-13T09:26:24.329Z,27.53
2018-11-13T09:28:54.914Z,28.73
2018-11-13T09:31:25.403Z,30.37
2018-11-13T09:33:56.340Z,33.30
2018-11-13T09:36:26.914Z,28.87
2018-11-13T09:38:57.649Z,30.20
2018-11-13T09:41:28.419Z,28.97
2018-11-13T09:43:59.779Z,27.40
2018-11-13T09:46:30.307Z,26.87
2018-11-13T09:49:00.889Z,27.13
2018-11-13T09:51:31.377Z,27.55
2018-11-13T09:54:02.080Z,29.07
2018-11-13T09:56:32.616Z,29.53
2018-11-13T09:59:03.440Z,30.53
2018-11-13T10:01:34.340Z,26.20
2018-11-13T10:04:05.130Z,29.30
2018-11-13T10:06:35.134Z,26.93
2018-11-13T10:09:10.530Z,27.52
2018-11-13T10:11:42.149Z,33.03
2018-11-13T10:14:13.249Z,26.93
2018-11-13T10:16:43.734Z,26.43
2018-11-13T10:19:14.369Z,28.87
2018-11-13T10:21:44.944Z,31.23
2018-11-13T10:24:15.459Z,27.07
2018-11-13T10:26:45.929Z,36.30
2018-11-13T10:29:16.645Z,24.70
2018-11-13T10:31:47.216Z,27.27
2018-11-13T10:34:17.844Z,28.63
2018-11-13T10:36:48.244Z,32.97
2018-11-13T10:39:18.829Z,26.17
2018-11-13T10:41:49.849Z,22.97
2018-11-13T10:44:20.404Z,32.50
2018-11-13T10:46:51.020Z,34.63
2018-11-13T10:49:21.806Z,24.30
2018-11-13T10:51:52.544Z,26.73
2018-11-13T10:54:23.570Z,28.50
2018-11-13T10:56:53.834Z,32.47
2018-11-13T10:59:24.591Z,30.67
2018-11-13T11:02:06.755Z,31.93
2018-11-13T11:04:42.380Z,29.13
2018-11-13T11:07:12.900Z,39.77
2018-11-13T11:09:43.474Z,34.70
2018-11-13T11:12:13.998Z,32.03
2018-11-13T11:14:44.814Z,29.60
2018-11-13T11:17:15.304Z,38.07
2018-11-13T11:19:46.040Z,32.60
2018-11-13T11:22:16.674Z,35.67
2018-11-13T11:24:47.294Z,30.87
2018-11-13T11:27:17.784Z,37.30
2018-11-13T11:29:48.650Z,33.63
2018-11-13T11:32:19.277Z,30.07
2018-11-13T11:34:49.880Z,35.30
2018-11-13T11:37:20.439Z,29.80
2018-11-13T11:39:51.014Z,34.37
2018-11-13T11:42:22.144Z,39.13
2018-11-13T11:44:52.769Z,36.30
2018-11-13T11:47:23.275Z,30.93
2018-11-13T11:49:53.869Z,42.47
2018-11-13T11:52:24.388Z,30.80
2018-11-13T11:54:55.015Z,41.73
2018-11-13T11:57:25.359Z,37.43
2018-11-13T11:59:55.929Z,37.50
2018-11-13T12:02:26.414Z,40.63
2018-11-13T12:04:57.130Z,41.60
2018-11-13T12:07:27.559Z,42.97
2018-11-13T12:09:58.015Z,37.27
2018-11-13T12:12:28.511Z,39.53
2018-11-13T12:14:59.914Z,39.70
2018-11-13T12:17:30.409Z,33.67
2018-11-13T12:20:01.024Z,29.77
2018-11-13T12:22:31.582Z,31.13
2018-11-13T12:25:02.200Z,28.33
2018-11-13T12:27:32.617Z,25.10
2018-11-13T12:30:03.265Z,34.97
2018-11-13T12:32:34.015Z,39.80
2018-11-13T12:35:04.574Z,32.47
2018-11-13T12:37:34.969Z,36.20
2018-11-13T12:40:05.999Z,27.40
2018-11-13T12:42:37.240Z,27.37
2018-11-13T12:45:08.516Z,26.52
2018-11-13T12:47:39.039Z,24.47
2018-11-13T12:50:11.004Z,28.90
2018-11-13T12:52:41.424Z,27.03
2018-11-13T12:55:14.711Z,18.57
2018-11-13T12:57:45.389Z,23.53
2018-11-13T13:00:20.025Z,27.22
2018-11-13T13:02:50.789Z,28.50
2018-11-13T13:05:22.793Z,29.72
2018-11-13T13:07:53.439Z,34.57
2018-11-13T13:10:24.309Z,31.00
2018-11-13T13:15:48.842Z,38.83
2018-11-13T13:18:19.988Z,40.93
2018-11-13T13:20:51.457Z,27.57
2018-11-13T13:23:22.457Z,28.33
2018-11-13T13:25:54.154Z,33.67
2018-11-13T13:28:25.316Z,36.33
2018-11-13T13:30:56.392Z,30.77
2018-11-13T13:33:27.676Z,29.93
2018-11-13T13:36:01.878Z,22.63
2018-11-13T13:38:35.786Z,25.23
2018-11-13T13:41:07.577Z,26.73
2018-11-13T13:43:39.361Z,24.10
2018-11-13T13:46:10.691Z,27.40
2018-11-13T13:48:41.897Z,31.40
2018-11-13T13:51:13.027Z,30.83
2018-11-13T13:53:44.128Z,37.10
2018-11-13T13:56:15.461Z,40.73
2018-11-13T13:58:46.581Z,28.77
2018-11-13T14:01:17.942Z,32.83
2018-11-13T14:03:49.117Z,36.73
2018-11-13T14:06:20.281Z,38.43
2018-11-13T14:08:51.414Z,33.37
2018-11-13T14:11:22.781Z,32.20
2018-11-13T14:13:53.991Z,28.73
2018-11-13T14:16:25.280Z,32.43
2018-11-13T14:18:56.531Z,32.67
2018-11-13T14:21:27.691Z,26.87
2018-11-13T14:24:00.041Z,30.50
2018-11-13T14:26:31.363Z,42.10
2018-11-13T14:29:02.539Z,34.27
2018-11-13T14:31:33.861Z,33.80
2018-11-13T14:34:04.921Z,33.43
2018-11-13T14:36:36.237Z,29.10
2018-11-13T14:39:11.206Z,28.45
2018-11-13T14:41:42.476Z,35.23
2018-11-13T14:44:14.251Z,29.23
2018-11-13T14:46:45.551Z,29.30
2018-11-13T14:49:16.692Z,24.47
2018-11-13T14:51:47.981Z,28.93
2018-11-13T14:54:19.236Z,24.43
2018-11-13T14:56:50.531Z,26.60
2018-11-13T14:59:21.857Z,25.03
2018-11-13T15:01:53.037Z,47.53
2018-11-13T15:04:24.221Z,37.97
2018-11-13T15:06:55.446Z,32.70
2018-11-13T15:09:26.912Z,28.03
2018-11-13T15:11:58.191Z,32.40
2018-11-13T15:14:29.396Z,26.30
2018-11-13T15:17:01.377Z,25.88
2018-11-13T15:19:32.846Z,22.57
2018-11-13T15:22:04.121Z,20.13
2018-11-13T15:24:35.331Z,14.50
2018-11-13T15:27:06.711Z,18.07
2018-11-13T15:29:37.867Z,21.63
2018-11-13T15:32:09.411Z,20.70
2018-11-13T15:34:40.612Z,26.13
2018-11-13T15:37:11.981Z,21.20
2018-11-13T15:39:43.121Z,21.97
2018-11-13T15:42:14.336Z,23.23
2018-11-13T15:44:46.381Z,26.33
2018-11-13T15:47:17.751Z,23.17
2018-11-13T15:49:48.953Z,27.40
2018-11-13T15:52:20.379Z,20.72
2018-11-13T15:54:51.492Z,24.10
2018-11-13T15:57:22.811Z,28.37
2018-11-13T15:59:54.162Z,30.10
2018-11-13T16:02:25.481Z,33.70
2018-11-13T16:04:56.678Z,30.63
2018-11-13T16:07:27.996Z,26.00
2018-11-13T16:10:01.268Z,27.03
2018-11-13T16:12:33.614Z,28.27
2018-11-13T16:15:06.083Z,29.73
2018-11-13T16:17:37.461Z,24.27
2018-11-13T16:20:09.281Z,25.20
2018-11-13T16:22:40.578Z,29.60
2018-11-13T16:25:11.967Z,30.03
2018-11-13T16:27:43.406Z,26.10
2018-11-13T16:30:16.555Z,26.17
2018-11-13T16:32:48.692Z,26.73
2018-11-13T16:35:20.853Z,29.30
2018-11-13T16:37:59.368Z,25.43
2018-11-13T16:40:31.898Z,26.23
2018-11-13T16:43:03.366Z,26.50
2018-11-13T16:45:35.697Z,32.80
2018-11-13T16:48:07.768Z,35.20
2018-11-13T16:50:40.208Z,28.03
2018-11-13T16:53:11.632Z,30.77
2018-11-13T16:55:47.651Z,34.63
2018-11-13T16:58:46.037Z,36.80
2018-11-13T17:01:17.291Z,41.23
2018-11-13T17:03:49.279Z,38.73
2018-11-13T17:06:20.834Z,35.27
2018-11-13T17:08:52.817Z,30.47
2018-11-13T17:11:27.214Z,33.93
2018-11-13T17:14:01.779Z,31.03
2018-11-13T17:16:35.232Z,37.47
2018-11-13T17:19:09.139Z,32.27
2018-11-13T17:21:44.629Z,37.43
2018-11-13T17:24:17.217Z,33.02
2018-11-13T17:26:53.799Z,26.67
2018-11-13T17:29:27.977Z,30.13
2018-11-13T17:32:02.077Z,31.47
2018-11-13T17:35:02.020Z,30.30
2018-11-13T17:37:42.785Z,32.87
2018-11-13T17:40:25.122Z,27.93
2018-11-13T17:43:04.657Z,31.70
2018-11-13T17:45:44.172Z,35.93
2018-11-13T17:48:20.777Z,32.23
2018-11-13T17:50:58.252Z,30.40
2018-11-13T17:53:36.940Z,31.37
2018-11-13T17:56:13.792Z,31.67
2018-11-13T17:58:51.577Z,33.73
2018-11-13T18:01:28.137Z,30.87
2018-11-13T18:04:03.687Z,37.27
2018-11-13T18:06:41.118Z,31.57
2018-11-13T18:09:19.058Z,37.90
2018-11-13T18:11:59.807Z,37.87
2018-11-13T18:14:35.169Z,31.27
2018-11-13T18:17:17.612Z,32.53
2018-11-13T18:19:54.992Z,40.77
2018-11-13T18:22:31.277Z,48.37
2018-11-13T18:25:06.022Z,62.30
2018-11-13T18:27:40.793Z,40.13
2018-11-13T18:30:25.767Z,43.20
2018-11-13T18:33:04.157Z,42.43
2018-11-13T18:35:43.527Z,45.13
2018-11-13T18:38:40.541Z,50.70
2018-11-13T18:41:24.077Z,46.37
2018-11-13T18:47:16.292Z,42.90
2018-11-13T18:49:59.501Z,46.20
2018-11-13T18:52:46.587Z,52.83
2018-11-13T18:55:29.569Z,54.43
2018-11-13T18:58:27.512Z,43.13
2018-11-13T19:01:20.844Z,46.47
2018-11-13T19:04:21.417Z,48.50
2018-11-13T19:07:04.172Z,48.50
2018-11-13T19:09:44.737Z,62.67
2018-11-13T19:22:45.176Z,52.93
2018-11-13T19:25:56.047Z,57.90
2018-11-13T19:29:00.152Z,59.13
2018-11-13T19:32:00.796Z,66.37
2018-11-13T19:34:48.617Z,64.97
2018-11-13T19:37:38.126Z,67.27
2018-11-13T19:40:36.453Z,62.83
2018-11-13T19:43:32.708Z,61.80
2018-11-13T19:46:18.492Z,60.37
2018-11-13T19:49:11.562Z,61.23
2018-11-13T19:52:01.167Z,58.57
2018-11-13T19:54:47.211Z,58.23
2018-11-13T19:57:30.904Z,56.43
2018-11-13T20:00:13.397Z,42.60
2018-11-13T20:02:54.358Z,51.37
2018-11-13T20:05:35.512Z,58.07
2018-11-13T20:08:10.352Z,54.40
2018-11-13T20:10:49.824Z,49.73
2018-11-13T20:13:32.121Z,52.40
2018-11-13T20:16:13.182Z,52.73
2018-11-13T20:21:35.428Z,40.90
2018-11-13T20:24:14.301Z,48.57
2018-11-13T20:26:58.191Z,43.03
2018-11-13T20:29:56.702Z,44.60
2018-11-13T20:32:32.362Z,46.17
2018-11-13T20:35:08.518Z,47.57
2018-11-13T20:37:44.057Z,52.53
2018-11-13T20:40:23.437Z,45.13
2018-11-13T20:43:03.887Z,42.13
2018-11-13T20:45:55.707Z,45.30
2018-11-13T20:48:41.585Z,40.00
2018-11-13T20:51:20.289Z,41.27
2018-11-13T20:54:08.996Z,48.23
2018-11-13T20:56:52.967Z,42.23
2018-11-13T21:02:31.377Z,39.90
2018-11-13T21:05:09.591Z,44.15
2018-11-13T21:07:43.255Z,45.67
2018-11-13T21:10:21.195Z,42.47
2018-11-13T21:12:54.332Z,40.67
2018-11-13T21:15:25.961Z,40.20
2018-11-13T21:17:57.222Z,39.53
2018-11-13T21:20:29.031Z,45.00
2018-11-13T21:23:00.585Z,49.05
2018-11-13T21:25:32.032Z,40.63
2018-11-13T21:28:04.166Z,46.05
2018-11-13T21:30:35.802Z,41.77
2018-11-13T21:33:07.556Z,47.87
2018-11-13T21:35:39.037Z,42.43
2018-11-13T21:38:10.367Z,43.00
2018-11-13T21:40:42.602Z,50.90
2018-11-13T21:43:14.192Z,49.97
2018-11-13T21:45:45.848Z,59.23
2018-11-13T21:48:17.247Z,57.37
2018-11-13T21:50:48.726Z,52.87
2018-11-13T21:53:20.347Z,51.23
2018-11-13T21:55:53.827Z,55.93
2018-11-13T21:58:25.302Z,53.13
2018-11-13T22:00:56.682Z,55.63
2018-11-13T22:03:28.230Z,55.07
2018-11-13T22:05:59.707Z,49.67
2018-11-13T22:08:31.053Z,48.47
2018-11-13T22:11:02.797Z,51.17
2018-11-13T22:13:34.394Z,56.93
2018-11-13T22:16:06.257Z,54.17
2018-11-13T22:18:37.911Z,51.40
2018-11-13T22:21:09.377Z,54.70
2018-11-13T22:23:40.647Z,57.20
2018-11-13T22:26:12.148Z,66.23
2018-11-13T22:28:43.391Z,74.30
2018-11-13T22:31:15.007Z,60.20
2018-11-13T22:33:46.281Z,63.27
2018-11-13T22:36:17.750Z,68.07
2018-11-13T22:38:49.005Z,60.17
2018-11-13T22:41:20.345Z,66.73
2018-11-13T22:43:51.801Z,57.97
2018-11-13T22:46:23.188Z,62.67
2018-11-13T22:48:54.357Z,62.23
2018-11-13T22:51:25.692Z,53.23
2018-11-13T22:53:57.211Z,66.23
2018-11-13T22:56:28.592Z,53.87
2018-11-13T22:58:59.932Z,63.53
2018-11-13T23:01:33.212Z,52.77
2018-11-13T23:04:04.477Z,55.27
2018-11-13T23:06:36.012Z,58.57
2018-11-13T23:09:10.107Z,80.83
2018-11-13T23:11:41.607Z,51.93
2018-11-13T23:14:12.737Z,56.43
2018-11-13T23:16:44.262Z,57.78
2018-11-13T23:19:15.516Z,57.90
2018-11-13T23:21:46.741Z,56.70
2018-11-13T23:24:17.902Z,42.57
2018-11-13T23:26:49.222Z,45.80
2018-11-13T23:29:20.423Z,42.47
2018-11-13T23:31:51.937Z,47.03
2018-11-13T23:34:23.106Z,46.10
2018-11-13T23:36:54.407Z,50.70
2018-11-13T23:39:25.561Z,49.40
2018-11-13T23:41:57.317Z,49.27
2018-11-13T23:44:29.065Z,58.80
2018-11-13T23:47:00.284Z,51.30
2018-11-13T23:49:31.659Z,53.20
2018-11-13T23:52:02.937Z,52.53
2018-11-13T23:54:34.177Z,53.33
2018-11-13T23:57:05.402Z,48.53
2018-11-13T23:59:36.552Z,54.80
